createdAt,value
2022-10-22T00:01:26.009Z,99914.80
2022-10-22T00:03:58.505Z,99925.40
2022-10-22T00:06:32.517Z,99925.80
2022-10-22T00:09:05.015Z,99925.20
2022-10-22T00:11:37.662Z,99923.20
2022-10-22T00:14:12.841Z,99920.20
2022-10-22T00:16:45.268Z,99920.80
2022-10-22T00:19:17.130Z,99913.80
2022-10-22T00:21:49.156Z,99915.40
2022-10-22T00:24:21.128Z,99922.60
2022-10-22T00:26:53.067Z,99928.20
2022-10-22T00:29:27.448Z,99928.80
2022-10-22T00:32:02.754Z,99921.80
2022-10-22T00:34:35.318Z,99909.40
2022-10-22T00:37:07.278Z,99897.80
2022-10-22T00:39:41.604Z,99911.80
2022-10-22T00:42:24.049Z,99903.20
2022-10-22T00:45:19.270Z,99886.80
2022-10-22T00:47:57.512Z,99887.20
2022-10-22T00:50:34.852Z,99880.00
2022-10-22T00:53:11.214Z,99878.20
2022-10-22T00:55:48.221Z,99873.80
2022-10-22T00:58:21.631Z,99877.40
2022-10-22T01:00:56.440Z,99881.80
2022-10-22T01:03:34.065Z,99869.00
2022-10-22T01:06:08.183Z,99862.60
2022-10-22T01:08:48.464Z,99853.60
2022-10-22T01:11:28.609Z,99857.60
2022-10-22T01:14:06.725Z,99861.20
2022-10-22T01:16:45.716Z,99858.60
2022-10-22T01:19:33.972Z,99856.20
2022-10-22T01:22:11.402Z,99852.20
2022-10-22T01:24:52.530Z,99858.60
2022-10-22T01:27:33.654Z,99867.20
2022-10-22T01:30:09.018Z,99881.40
2022-10-22T01:32:45.787Z,99896.20
2022-10-22T01:35:23.436Z,99911.40
2022-10-22T01:37:59.185Z,99897.00
2022-10-22T01:40:33.004Z,99870.60
2022-10-22T01:43:06.890Z,99864.60
2022-10-22T01:45:41.323Z,99874.60
2022-10-22T01:48:23.955Z,99875.20
2022-10-22T01:51:28.507Z,99858.60
2022-10-22T01:54:07.648Z,99859.40
2022-10-22T01:56:53.435Z,99857.60
2022-10-22T01:59:35.576Z,99855.20
2022-10-22T02:02:19.025Z,99856.80
2022-10-22T02:04:56.406Z,99853.40
2022-10-22T02:07:32.826Z,99859.20
2022-10-22T02:10:07.602Z,99855.00
2022-10-22T02:12:41.387Z,99843.20
2022-10-22T02:15:15.966Z,99841.60
2022-10-22T02:17:48.837Z,99844.20
2022-10-22T02:20:24.344Z,99835.60
2022-10-22T02:22:57.277Z,99825.40
2022-10-22T02:25:33.808Z,99821.80
2022-10-22T02:28:14.627Z,99812.20
2022-10-22T02:30:51.250Z,99827.20
2022-10-22T02:33:27.456Z,99831.60
2022-10-22T02:36:01.942Z,99840.20
2022-10-22T02:38:35.704Z,99837.00
2022-10-22T02:41:07.919Z,99841.80
2022-10-22T02:43:44.381Z,99839.20
2022-10-22T02:46:16.325Z,99842.60
2022-10-22T02:48:51.051Z,99846.60
2022-10-22T02:51:23.675Z,99852.80
2022-10-22T02:53:55.749Z,99853.60
2022-10-22T02:56:27.838Z,99857.80
2022-10-22T02:58:59.880Z,99857.40
2022-10-22T03:01:31.920Z,99842.20
2022-10-22T03:04:04.587Z,99831.20
2022-10-22T03:06:36.604Z,99840.00
2022-10-22T03:09:08.604Z,99835.40
2022-10-22T03:11:40.544Z,99840.00
2022-10-22T03:14:12.560Z,99847.80
2022-10-22T03:16:44.403Z,99845.20
2022-10-22T03:19:16.292Z,99849.60
2022-10-22T03:21:51.875Z,99843.40
2022-10-22T03:24:29.865Z,99845.00
2022-10-22T03:27:01.681Z,99846.20
2022-10-22T03:29:36.417Z,99849.60
2022-10-22T03:32:08.528Z,99848.20
2022-10-22T03:34:44.040Z,99845.60
2022-10-22T03:37:16.485Z,99842.00
2022-10-22T03:39:48.677Z,99839.60
2022-10-22T03:42:21.011Z,99835.00
2022-10-22T03:44:52.765Z,99842.60
2022-10-22T03:47:24.828Z,99846.40
2022-10-22T03:49:56.673Z,99844.40
2022-10-22T03:52:28.790Z,99848.40
2022-10-22T03:55:00.841Z,99846.60
2022-10-22T03:57:33.258Z,99850.60
2022-10-22T04:00:06.272Z,99851.00
2022-10-22T04:02:38.270Z,99850.20
2022-10-22T04:05:10.966Z,99849.40
2022-10-22T04:07:42.939Z,99850.20
2022-10-22T04:10:14.945Z,99843.00
2022-10-22T04:12:49.986Z,99842.80
2022-10-22T04:15:21.715Z,99850.00
2022-10-22T04:17:53.569Z,99842.60
2022-10-22T04:20:25.481Z,99843.60
2022-10-22T04:23:00.512Z,99838.40
2022-10-22T04:25:32.299Z,99834.20
2022-10-22T04:28:04.388Z,99834.20
2022-10-22T04:30:36.168Z,99824.60
2022-10-22T04:33:08.015Z,99822.20
2022-10-22T04:35:42.374Z,99821.80
2022-10-22T04:38:14.674Z,99817.80
2022-10-22T04:40:46.433Z,99826.60
2022-10-22T04:43:18.503Z,99824.20
2022-10-22T04:45:50.392Z,99822.20
2022-10-22T04:48:22.345Z,99829.00
2022-10-22T04:50:54.237Z,99833.20
2022-10-22T04:53:26.114Z,99832.40
2022-10-22T04:56:07.280Z,99838.20
2022-10-22T04:58:39.466Z,99849.40
2022-10-22T05:01:20.080Z,99861.00
2022-10-22T05:03:56.781Z,99868.00
2022-10-22T05:06:32.038Z,99865.20
2022-10-22T05:09:06.264Z,99856.40
2022-10-22T05:11:42.084Z,99858.60
2022-10-22T05:14:16.901Z,99853.00
2022-10-22T05:16:49.571Z,99850.80
2022-10-22T05:19:25.131Z,99851.20
2022-10-22T05:22:04.077Z,99854.60
2022-10-22T05:24:38.233Z,99857.20
2022-10-22T05:27:10.352Z,99863.80
2022-10-22T05:29:42.719Z,99864.60
2022-10-22T05:32:14.584Z,99870.20
2022-10-22T05:34:49.485Z,99873.60
2022-10-22T05:37:21.562Z,99880.40
2022-10-22T05:40:06.603Z,99876.40
2022-10-22T05:42:48.714Z,99882.60
2022-10-22T05:45:20.708Z,99882.00
2022-10-22T05:47:55.083Z,99894.00
2022-10-22T05:50:27.482Z,99906.60
2022-10-22T05:53:03.907Z,99918.00
2022-10-22T05:55:41.976Z,99926.00
2022-10-22T05:58:15.091Z,99938.20
2022-10-22T06:00:51.064Z,99935.40
2022-10-22T06:03:28.996Z,99931.60
2022-10-22T06:06:07.391Z,99933.20
2022-10-22T06:08:47.870Z,99927.40
2022-10-22T06:11:21.242Z,99923.80
2022-10-22T06:13:53.790Z,99923.80
2022-10-22T06:16:28.026Z,99922.60
2022-10-22T06:19:02.402Z,99913.60
2022-10-22T06:21:34.280Z,99911.60
2022-10-22T06:24:07.242Z,99913.40
2022-10-22T06:26:39.191Z,99915.00
2022-10-22T06:29:11.652Z,99912.00
2022-10-22T06:31:43.591Z,99909.20
2022-10-22T06:34:18.772Z,99912.40
2022-10-22T06:36:51.694Z,99908.20
2022-10-22T06:39:36.572Z,99911.60
2022-10-22T06:42:08.498Z,99911.40
2022-10-22T06:44:40.283Z,99913.80
2022-10-22T06:47:21.276Z,99912.80
2022-10-22T06:49:53.095Z,99917.40
2022-10-22T06:52:26.963Z,99921.60
2022-10-22T06:54:58.808Z,99921.20
2022-10-22T06:57:31.017Z,99919.60
2022-10-22T07:00:10.081Z,99921.00
2022-10-22T07:02:56.370Z,99928.20
2022-10-22T07:05:37.035Z,99927.80
2022-10-22T07:08:12.119Z,99933.20
2022-10-22T07:10:48.302Z,99939.40
2022-10-22T07:13:24.374Z,99931.60
2022-10-22T07:16:04.002Z,99932.20
2022-10-22T07:18:39.966Z,99933.40
2022-10-22T07:21:17.035Z,99930.40
2022-10-22T07:23:52.679Z,99931.80
2022-10-22T07:26:32.996Z,99931.80
2022-10-22T07:29:25.407Z,99932.80
2022-10-22T07:32:01.245Z,99931.40
2022-10-22T07:34:39.482Z,99930.20
2022-10-22T07:37:21.956Z,99932.00
2022-10-22T07:39:55.222Z,99936.40
2022-10-22T07:42:36.400Z,99943.20
2022-10-22T07:45:15.295Z,99947.20
2022-10-22T07:48:04.482Z,99943.80
2022-10-22T07:50:39.665Z,99947.20
2022-10-22T07:53:15.043Z,99946.60
2022-10-22T07:56:01.701Z,99947.00
2022-10-22T07:58:46.184Z,99948.40
2022-10-22T08:01:20.091Z,99952.60
2022-10-22T08:03:52.779Z,99951.80
2022-10-22T08:06:25.813Z,99956.20
2022-10-22T08:08:58.540Z,99950.40
2022-10-22T08:11:44.073Z,99951.80
2022-10-22T08:14:18.197Z,99958.00
2022-10-22T08:16:52.266Z,99955.60
2022-10-22T08:19:24.747Z,99954.60
2022-10-22T08:22:01.772Z,99953.60
2022-10-22T08:24:36.965Z,99950.20
2022-10-22T08:27:17.383Z,99949.40
2022-10-22T08:29:57.487Z,99951.40
2022-10-22T08:32:44.320Z,99960.40
2022-10-22T08:35:17.791Z,99964.20
2022-10-22T08:37:59.082Z,99964.80
2022-10-22T08:40:36.413Z,99967.40
2022-10-22T08:43:32.545Z,99975.60
2022-10-22T08:46:21.347Z,99985.00
2022-10-22T08:49:00.846Z,99996.80
2022-10-22T08:51:40.620Z,100004.60
2022-10-22T08:54:25.050Z,100004.00
2022-10-22T08:57:12.441Z,99997.80
2022-10-22T08:59:49.107Z,99994.80
2022-10-22T09:03:00.061Z,99993.00
2022-10-22T09:05:41.113Z,99985.00
2022-10-22T09:08:20.726Z,99981.20
2022-10-22T09:10:57.172Z,99981.60
2022-10-22T09:13:44.709Z,99986.60
2022-10-22T09:16:25.316Z,99989.20
2022-10-22T09:19:10.724Z,99983.40
2022-10-22T09:21:53.469Z,99989.80
2022-10-22T09:24:33.223Z,99996.20
2022-10-22T09:27:14.021Z,99999.20
2022-10-22T09:29:47.507Z,99996.20
2022-10-22T09:32:20.659Z,99996.40
2022-10-22T09:34:56.834Z,100000.20
2022-10-22T09:37:31.788Z,100008.80
2022-10-22T09:40:07.593Z,100008.00
2022-10-22T09:42:40.501Z,100006.60
2022-10-22T09:45:20.359Z,100009.60
2022-10-22T09:48:04.159Z,100006.00
2022-10-22T09:50:45.047Z,100002.60
2022-10-22T09:53:21.959Z,100002.60
2022-10-22T09:55:59.108Z,100006.80
2022-10-22T09:58:30.984Z,100001.00
2022-10-22T10:01:03.659Z,100000.20
2022-10-22T10:03:35.879Z,100003.00
2022-10-22T10:06:08.809Z,100004.20
2022-10-22T10:08:43.581Z,100002.20
2022-10-22T10:11:29.286Z,100002.20
2022-10-22T10:14:16.972Z,100009.80
2022-10-22T10:16:58.652Z,100012.40
2022-10-22T10:19:49.167Z,100021.40
2022-10-22T10:22:33.732Z,100023.80
2022-10-22T10:25:29.159Z,100020.80
2022-10-22T10:28:10.809Z,100007.60
2022-10-22T10:30:49.954Z,99998.40
2022-10-22T10:33:31.393Z,100002.80
2022-10-22T10:36:15.942Z,100016.40
2022-10-22T10:38:58.291Z,100017.40
2022-10-22T10:41:40.865Z,100026.00
2022-10-22T10:44:37.108Z,100018.80
2022-10-22T10:47:22.817Z,100019.20
2022-10-22T10:50:12.765Z,100012.60
2022-10-22T10:52:56.395Z,100021.80
2022-10-22T10:55:35.794Z,100019.40
2022-10-22T10:58:20.800Z,100018.00
2022-10-22T11:00:57.260Z,100019.00
2022-10-22T11:04:01.478Z,100026.00
2022-10-22T11:06:41.028Z,100018.20
2022-10-22T11:09:29.475Z,100012.40
2022-10-22T11:12:12.085Z,100014.40
2022-10-22T11:14:58.032Z,100005.20
2022-10-22T11:17:40.372Z,100008.80
2022-10-22T11:20:20.816Z,100003.40
2022-10-22T11:23:19.286Z,100000.60
2022-10-22T11:25:53.166Z,99997.60
2022-10-22T11:28:33.552Z,99992.40
2022-10-22T11:31:10.568Z,99983.80
2022-10-22T11:33:47.766Z,99982.20
2022-10-22T11:36:23.045Z,99982.80
2022-10-22T11:38:55.999Z,99992.80
2022-10-22T11:41:31.401Z,99993.40
2022-10-22T11:44:14.616Z,99992.00
2022-10-22T11:46:58.314Z,99997.80
2022-10-22T11:49:43.541Z,100000.40
2022-10-22T11:52:29.216Z,100002.20
2022-10-22T11:55:04.699Z,99996.20
2022-10-22T11:57:43.542Z,99996.00
2022-10-22T12:00:36.979Z,99995.20
2022-10-22T12:03:19.003Z,99994.60
2022-10-22T12:06:11.694Z,99998.40
2022-10-22T12:08:48.014Z,99997.40
2022-10-22T12:11:26.589Z,100001.20
2022-10-22T12:14:19.760Z,99997.00
2022-10-22T12:16:57.940Z,99989.60
2022-10-22T12:19:33.491Z,99992.80
2022-10-22T12:22:17.114Z,99988.60
2022-10-22T12:24:51.027Z,99983.00
2022-10-22T12:27:25.164Z,99982.00
2022-10-22T12:29:59.602Z,99985.20
2022-10-22T12:32:37.017Z,99985.60
2022-10-22T12:35:15.730Z,99995.80
2022-10-22T12:37:50.363Z,99996.00
2022-10-22T12:40:25.498Z,99998.20
2022-10-22T12:42:59.319Z,99991.00
2022-10-22T12:45:33.111Z,99994.40
2022-10-22T12:48:14.798Z,99994.40
2022-10-22T12:50:50.189Z,99985.00
2022-10-22T12:53:25.790Z,99993.00
2022-10-22T12:56:00.815Z,99984.80
2022-10-22T12:58:39.470Z,99989.80
2022-10-22T13:01:14.229Z,99990.20
2022-10-22T13:03:50.951Z,99996.00
2022-10-22T13:06:29.561Z,99993.20
2022-10-22T13:09:15.952Z,99991.00
2022-10-22T13:11:58.348Z,99990.40
2022-10-22T13:14:36.044Z,99978.80
2022-10-22T13:17:14.969Z,99978.20
2022-10-22T13:19:50.712Z,99982.00
2022-10-22T13:22:35.704Z,99985.80
2022-10-22T13:25:27.365Z,99988.40
2022-10-22T13:28:02.136Z,99989.80
2022-10-22T13:30:36.830Z,99987.40
2022-10-22T13:33:23.802Z,99992.00
2022-10-22T13:36:05.834Z,99998.40
2022-10-22T13:38:42.606Z,99997.00
2022-10-22T13:41:43.979Z,99996.20
2022-10-22T13:44:16.076Z,100000.60
2022-10-22T13:46:50.840Z,99998.40
2022-10-22T13:49:27.655Z,100005.20
2022-10-22T13:52:01.543Z,100006.20
2022-10-22T13:54:38.691Z,100004.80
2022-10-22T13:57:14.357Z,100008.60
2022-10-22T13:59:51.310Z,100008.40
2022-10-22T14:02:24.905Z,100012.60
2022-10-22T14:05:05.430Z,100014.20
2022-10-22T14:07:39.960Z,100019.60
2022-10-22T14:10:30.337Z,100017.40
2022-10-22T14:13:09.029Z,100023.00
2022-10-22T14:15:41.475Z,100025.00
2022-10-22T14:18:24.190Z,100024.00
2022-10-22T14:21:05.573Z,100021.60
2022-10-22T14:23:44.376Z,100019.80
2022-10-22T14:26:28.323Z,100023.00
2022-10-22T14:29:11.137Z,100022.00
2022-10-22T14:31:45.185Z,100029.80
2022-10-22T14:34:30.456Z,100034.00
2022-10-22T14:37:20.276Z,100033.80
2022-10-22T14:40:01.777Z,100033.20
2022-10-22T14:42:43.407Z,100037.20
2022-10-22T14:45:25.246Z,100039.00
2022-10-22T14:47:57.555Z,100041.20
2022-10-22T14:50:29.507Z,100041.80
2022-10-22T14:53:01.113Z,100042.20
2022-10-22T14:55:32.994Z,100041.00
2022-10-22T14:58:04.716Z,100040.80
2022-10-22T15:00:39.565Z,100046.00
2022-10-22T15:03:14.514Z,100053.20
2022-10-22T15:06:00.557Z,100059.20
2022-10-22T15:08:33.727Z,100055.80
2022-10-22T15:11:13.001Z,100053.80
2022-10-22T15:13:48.916Z,100053.20
2022-10-22T15:16:23.259Z,100060.20
2022-10-22T15:18:57.446Z,100055.80
2022-10-22T15:21:43.549Z,100058.20
2022-10-22T15:24:44.893Z,100062.60
2022-10-22T15:27:17.264Z,100065.20
2022-10-22T15:29:49.772Z,100069.40
2022-10-22T15:32:24.839Z,100072.60
2022-10-22T15:35:01.763Z,100073.40
2022-10-22T15:37:36.897Z,100077.80
2022-10-22T15:40:10.680Z,100078.40
2022-10-22T15:42:43.029Z,100078.40
2022-10-22T15:45:15.754Z,100090.40
2022-10-22T15:47:52.735Z,100088.60
2022-10-22T15:50:25.267Z,100097.20
2022-10-22T15:52:57.561Z,100104.80
2022-10-22T15:55:29.379Z,100110.00
2022-10-22T15:58:03.354Z,100113.40
2022-10-22T16:00:36.635Z,100110.40
2022-10-22T16:03:13.630Z,100114.20
2022-10-22T16:05:54.628Z,100117.60
2022-10-22T16:08:26.644Z,100117.60
2022-10-22T16:10:58.611Z,100109.60
2022-10-22T16:13:36.813Z,100109.40
2022-10-22T16:16:10.344Z,100116.20
2022-10-22T16:18:42.110Z,100113.80
2022-10-22T16:21:18.696Z,100116.00
2022-10-22T16:23:50.664Z,100121.00
2022-10-22T16:26:22.730Z,100123.80
2022-10-22T16:28:54.574Z,100130.60
2022-10-22T16:31:26.315Z,100130.40
2022-10-22T16:33:58.446Z,100132.60
2022-10-22T16:36:30.253Z,100141.60
2022-10-22T16:39:02.065Z,100143.00
2022-10-22T16:41:36.465Z,100143.20
2022-10-22T16:44:11.015Z,100149.40
2022-10-22T16:46:57.376Z,100151.40
2022-10-22T16:49:31.165Z,100151.20
2022-10-22T16:52:07.043Z,100156.20
2022-10-22T16:54:42.388Z,100153.80
2022-10-22T16:57:19.883Z,100151.40
2022-10-22T17:00:03.048Z,100153.20
2022-10-22T17:02:37.633Z,100155.40
2022-10-22T17:05:11.111Z,100162.60
2022-10-22T17:07:42.958Z,100165.00
2022-10-22T17:10:14.753Z,100163.20
2022-10-22T17:12:46.595Z,100169.40
2022-10-22T17:15:18.903Z,100171.40
2022-10-22T17:17:53.873Z,100175.00
2022-10-22T17:20:25.738Z,100181.60
2022-10-22T17:22:57.591Z,100178.40
2022-10-22T17:25:42.018Z,100182.40
2022-10-22T17:28:14.439Z,100187.40
2022-10-22T17:30:46.218Z,100184.40
2022-10-22T17:33:18.293Z,100189.80
2022-10-22T17:35:53.036Z,100190.00
2022-10-22T17:38:24.832Z,100191.80
2022-10-22T17:40:59.152Z,100195.80
2022-10-22T17:43:33.774Z,100199.40
2022-10-22T17:46:11.758Z,100198.80
2022-10-22T17:49:47.717Z,100207.00
2022-10-22T17:52:21.058Z,100213.00
2022-10-22T17:54:54.782Z,100215.40
2022-10-22T17:57:33.315Z,100213.40
2022-10-22T18:00:10.303Z,100221.20
2022-10-22T18:57:03.238Z,100247.20
2022-10-22T18:59:36.671Z,100253.40
2022-10-22T19:02:16.109Z,100254.00
2022-10-22T19:04:49.862Z,100255.60
2022-10-22T19:07:22.948Z,100258.80
2022-10-22T19:09:56.100Z,100263.80
2022-10-22T19:12:29.555Z,100264.20
2022-10-22T19:15:02.790Z,100271.20
2022-10-22T19:17:36.949Z,100270.20
2022-10-22T19:20:12.504Z,100275.40
2022-10-22T19:22:47.772Z,100274.60
2022-10-22T19:25:21.272Z,100274.40
2022-10-22T19:27:54.985Z,100278.80
2022-10-22T19:30:28.166Z,100281.00
2022-10-22T19:33:01.428Z,100281.80
2022-10-22T19:35:37.062Z,100283.40
2022-10-22T19:38:10.214Z,100289.20
2022-10-22T19:40:45.097Z,100291.40
2022-10-22T19:43:19.129Z,100295.20
2022-10-22T19:45:52.629Z,100295.80
2022-10-22T19:48:28.710Z,100301.80
2022-10-22T19:51:08.571Z,100309.00
2022-10-22T19:53:43.431Z,100307.60
2022-10-22T19:56:20.945Z,100311.40
2022-10-22T19:58:54.295Z,100315.60
2022-10-22T20:01:28.217Z,100313.60
2022-10-22T20:04:01.896Z,100314.00
2022-10-22T20:06:35.271Z,100315.00
2022-10-22T20:09:08.642Z,100313.80
2022-10-22T20:11:43.518Z,100317.00
2022-10-22T20:14:20.127Z,100326.00
2022-10-22T20:17:10.629Z,100332.00
2022-10-22T20:19:51.354Z,100335.40
2022-10-22T20:22:34.565Z,100336.20
2022-10-22T20:28:23.662Z,100331.80
2022-10-22T20:30:56.879Z,100332.80
2022-10-22T20:33:36.242Z,100335.00
2022-10-22T20:36:20.964Z,100341.20
2022-10-22T20:39:10.467Z,100337.60
2022-10-22T20:41:58.390Z,100326.60
2022-10-22T20:44:45.733Z,100334.00
2022-10-22T20:47:19.223Z,100336.40
2022-10-22T20:50:02.144Z,100328.80
2022-10-22T20:52:42.504Z,100334.20
2022-10-22T20:58:07.179Z,100336.60
2022-10-22T21:00:40.666Z,100343.20
2022-10-22T21:03:15.268Z,100342.80
2022-10-22T21:05:48.571Z,100341.40
2022-10-22T21:08:22.083Z,100340.20
2022-10-22T21:11:34.677Z,100343.80
2022-10-22T21:14:14.741Z,100344.00
2022-10-22T21:17:01.750Z,100341.80
2022-10-22T21:20:25.360Z,100346.60
2022-10-22T21:23:04.076Z,100354.20
2022-10-22T21:25:43.356Z,100351.40
2022-10-22T21:28:33.810Z,100346.00
2022-10-22T21:31:26.388Z,100344.20
2022-10-22T21:34:18.572Z,100343.20
2022-10-22T21:36:56.931Z,100343.00
2022-10-22T21:39:41.988Z,100341.40
2022-10-22T21:42:26.326Z,100345.80
2022-10-22T21:45:10.494Z,100354.00
2022-10-22T21:47:56.746Z,100357.40
2022-10-22T21:50:33.560Z,100358.40
2022-10-22T21:53:22.197Z,100359.20
2022-10-22T21:56:02.857Z,100360.00
2022-10-22T21:58:40.664Z,100363.60
2022-10-22T22:01:19.123Z,100363.40
2022-10-22T22:04:02.166Z,100363.80
2022-10-22T22:06:50.109Z,100365.00
2022-10-22T22:09:42.244Z,100372.80
2022-10-22T22:12:23.090Z,100371.20
2022-10-22T22:15:02.886Z,100366.00
2022-10-22T22:17:41.614Z,100375.00
2022-10-22T22:20:16.433Z,100373.80
2022-10-22T22:22:57.869Z,100375.00
2022-10-22T22:25:35.846Z,100376.40
2022-10-22T22:28:20.476Z,100377.80
2022-10-22T22:30:57.759Z,100379.20
2022-10-22T22:33:33.719Z,100382.60
2022-10-22T22:36:08.140Z,100380.00
2022-10-22T22:38:44.937Z,100381.20
2022-10-22T22:41:18.381Z,100376.20
2022-10-22T22:43:51.643Z,100381.00
2022-10-22T22:46:25.181Z,100382.20
2022-10-22T22:48:59.214Z,100381.80
2022-10-22T22:51:33.040Z,100375.60
2022-10-22T22:54:06.548Z,100382.80
2022-10-22T22:56:41.065Z,100388.00
2022-10-22T22:59:14.960Z,100391.20
2022-10-22T23:01:50.992Z,100389.20
2022-10-22T23:04:25.374Z,100392.80
2022-10-22T23:06:58.556Z,100394.20
2022-10-22T23:09:31.829Z,100390.40
2022-10-22T23:12:05.531Z,100384.00
2022-10-22T23:14:41.282Z,100387.20
2022-10-22T23:17:14.721Z,100384.20
2022-10-22T23:19:48.459Z,100382.00
2022-10-22T23:22:21.880Z,100388.20
2022-10-22T23:24:55.165Z,100385.20
2022-10-22T23:27:28.542Z,100392.40
2022-10-22T23:30:01.759Z,100389.60
2022-10-22T23:32:35.169Z,100388.80
2022-10-22T23:35:10.505Z,100388.00
2022-10-22T23:37:43.940Z,100394.60
2022-10-22T23:40:17.529Z,100394.20
2022-10-22T23:42:50.793Z,100395.20
2022-10-22T23:45:24.797Z,100387.60
2022-10-22T23:47:58.342Z,100392.60
2022-10-22T23:50:31.740Z,100393.20
2022-10-22T23:53:05.166Z,100394.00
2022-10-22T23:55:41.677Z,100400.60
2022-10-22T23:58:15.271Z,100403.20
